Latest Coastal Weather Observations for Mackay

IDQ60701

Issued at 5:02 pm EST Thursday 27 April 2017 (issued every 10 minutes, with the page automatically refreshed every 10 minutes)

About coastal observations | Map of coastal stations | Coastal observations for QLD | Marine services | Other Formats
Station Details ID: 033119 Name: MACKAY M.O Lat: -21.12 Lon: 149.22 Height: 30.26 m
Data from the previous 72 hours. | See also: Recent months at Mackay
Date/Time
EST
Temp
°C
Wind Pressure Rain since
9am
mm
Weather Cloud Vis
km
Sea
Height
m
Swell
Dir  Spd
kts
Gust
kts
hPa Trend Height
m
Period
s
Dir
27/05:00pm 23.8 SSE 11 18 1011.5 - 0.0 - - - - - - -
27/04:30pm 24.2 SE 9 15 1011.1 - 0.0 - Partly cloudy - - - - -
27/04:00pm 24.1 SE 8 13 1011.1 - 0.0 - Partly cloudy - - - - -
27/03:30pm 24.4 SE 9 13 1010.9 - 0.0 - Partly cloudy - - - - -
27/03:00pm 25.3 SE 10 15 1011.0 R 0.0 - - - - - - -
27/02:30pm 25.2 SE 9 14 1011.2 - 0.0 - Partly cloudy - - - - -
27/02:00pm 25.0 SE 10 15 1011.3 - 0.0 - - - - - - -
27/01:30pm 25.7 SE 9 14 1011.4 - 0.0 - Partly cloudy - - - - -
27/01:00pm 25.7 SE 10 14 1011.9 - 0.0 - Partly cloudy - - - - -
27/12:30pm 26.1 SSE 8 14 1012.2 - 0.0 - Partly cloudy - - - - -
27/12:00pm 25.4 SE 8 13 1012.5 F 0.0 - - - - - - -
27/11:30am 26.3 SE 8 11 1013.0 - 0.0 - Partly cloudy - - - - -
27/11:00am 25.5 SSE 10 15 1013.4 - 0.0 - - - - - - -
27/10:30am 25.5 SSE 9 14 1013.6 - 0.0 - - - - - - -
27/10:00am 25.7 SSE 9 13 1013.6 - 0.0 - - - - - - -
27/09:30am 25.2 S 7 10 1013.7 - 0.0 - - - - - - -
27/09:00am 24.3 S 7 9 1013.7 R 0.0 - - - - - - -
27/08:30am 23.6 SSW 6 7 1013.5 - 0.0 - - - - - - -
27/08:00am 22.2 SSW 6 8 1013.1 - 0.0 - - - - - - -
27/07:30am 21.3 SW 5 6 1012.8 - 0.0 - - - - - - -
27/07:00am 20.6 WNW 4 6 1012.4 - 0.0 - - - - - - -
27/06:30am 20.3 NW 3 4 1012.0 - 0.0 - - - - - - -
27/06:00am 19.9 N 4 6 1011.8 R 0.0 - - - - - - -
27/05:30am 20.1 NW 4 4 1011.6 - 0.0 - - - - - - -
27/05:00am 20.0 SW 4 5 1011.6 - 0.0 - - - - - - -
27/04:30am 20.4 WSW 5 7 1011.5 - 0.0 - - - - - - -
27/04:00am 20.6 SW 6 8 1011.2 - 0.0 - - - - - - -
27/03:30am 20.6 SW 7 10 1011.2 - 0.0 - - - - - - -
27/03:00am 20.7 NNW 4 5 1010.7 - 0.0 - - - - - - -
27/02:30am 21.1 NW 5 6 1011.0 - 0.0 - - - - - - -
27/02:00am 21.0 NW 5 6 1011.3 - 0.0 - - - - - - -
27/01:30am 21.0 NW 5 6 1011.4 - 0.0 - - - - - - -
27/01:00am 21.2 NW 4 5 1011.7 - 0.0 - - - - - - -
27/12:30am 21.4 NNW 6 7 1011.8 - 0.0 - - - - - - -
27/12:00am 21.8 NW 4 5 1012.3 - 0.0 - - - - - - -
 
Date/Time
EST
Temp
°C
Wind Pressure Rain since
9am
mm
Weather Cloud Vis
km
Sea
Height
m
Swell
Dir  Spd
kts
Gust
kts
hPa Trend Height
m
Period
s
Dir
26/11:30pm 22.1 NW 4 5 1012.5 - 0.0 - - - - - - -
26/11:00pm 22.5 NNW 5 6 1012.7 - 0.0 - - - - - - -
26/10:30pm 22.8 NNW 6 7 1012.8 - 0.0 - - - - - - -
26/10:00pm 22.9 NNW 6 7 1012.8 - 0.0 - - - - - - -
26/09:30pm 22.9 N 6 8 1012.7 - 0.0 - - - - - - -
26/09:00pm 23.0 N 5 8 1012.8 F 0.0 - - - - - - -
26/08:30pm 23.0 N 5 8 1012.8 - 0.0 - - - - - - -
26/08:00pm 23.1 N 6 8 1012.5 - 0.0 - - - - - - -
26/07:30pm 22.9 N 5 7 1012.2 - 0.0 - - - - - - -
26/07:00pm 23.0 N 5 6 1012.0 - 0.0 - - - - - - -
26/06:30pm 23.2 N 6 8 1011.7 - 0.0 - - - - - - -
26/06:00pm 23.3 N 5 8 1011.3 F 0.0 - - - - - - -
26/05:30pm 23.8 N 7 13 1010.8 - 0.0 - - - - - - -
26/05:00pm 24.5 N 7 11 1010.7 - 0.0 - - - - - - -
26/04:30pm 25.4 N 7 11 1010.5 - 0.0 - - - - - - -
26/04:00pm 26.1 NNE 7 12 1010.6 - 0.0 - - - - - - -
26/03:30pm 26.6 NNE 7 12 1010.8 - 0.0 - - - - - - -
26/03:00pm 27.2 NNE 6 10 1010.9 F 0.0 - - - - - - -
26/02:30pm 27.3 NNE 7 11 1011.2 - 0.0 - - - - - - -
26/02:00pm 27.9 NNE 7 10 1011.5 - 0.0 - - - - - - -
26/01:30pm 28.0 NNE 6 11 1012.0 - 0.0 - - - - - - -
26/01:00pm 28.0 NNE 6 9 1012.4 - 0.0 - - - - - - -
26/12:30pm 28.0 NNE 5 9 1012.7 - 0.0 - - - - - - -
26/12:00pm 27.0 NE 6 8 1013.3 F 0.0 - - - - - - -
26/11:30am 26.4 NE 5 8 1014.1 - 0.0 - - - - - - -
26/11:00am 26.1 E 5 7 1014.6 - 0.0 - Partly cloudy - - - - -
26/10:30am 25.4 ENE 4 7 1014.9 - 0.0 - - - - - - -
26/10:00am 25.0 WSW 2 5 1015.4 - 0.0 - Partly cloudy - - - - -
26/09:30am 24.6 SW 4 6 1015.2 - 0.0 - - - - - - -
26/09:00am 23.2 SW 6 9 1015.1 F 0.2 - - - - - - -
26/08:30am 21.9 WSW 5 8 1015.0 - 0.2 - - - - - - -
26/08:00am 20.8 WSW 6 9 1014.9 - 0.2 - - - - - - -
26/07:30am 19.7 WSW 7 10 1014.8 - 0.2 - - - - - - -
26/07:00am 18.7 WSW 6 10 1014.4 - 0.2 - - - - - - -
26/06:30am 18.3 WSW 7 9 1014.3 - 0.2 - - - - - - -
26/06:00am 18.4 WSW 7 9 1013.9 F 0.0 - - - - - - -
26/05:30am 18.5 WSW 7 9 1013.8 - 0.0 - - - - - - -
26/05:00am 18.5 WSW 7 10 1013.6 - 0.0 - - - - - - -
26/04:30am 18.7 WSW 7 10 1013.5 - 0.0 - - - - - - -
26/04:00am 18.9 WSW 7 9 1013.7 - 0.0 - - - - - - -
26/03:30am 19.0 WSW 7 9 1013.7 - 0.0 - - - - - - -
26/03:00am 19.1 WSW 7 9 1013.8 - 0.0 - - - - - - -
26/02:30am 19.4 WSW 7 9 1014.1 - 0.0 - - - - - - -
26/02:00am 19.7 WSW 7 9 1014.4 - 0.0 - - - - - - -
26/01:30am 20.0 SW 7 8 1014.8 - 0.0 - - - - - - -
26/01:00am 20.1 WSW 6 8 1015.0 - 0.0 - - - - - - -
26/12:30am 20.2 WSW 6 7 1015.1 - 0.0 - - - - - - -
26/12:00am 20.3 WSW 6 8 1015.3 - 0.0 - - - - - - -
 
Date/Time
EST
Temp
°C
Wind Pressure Rain since
9am
mm
Weather Cloud Vis
km
Sea
Height
m
Swell
Dir  Spd
kts
Gust
kts
hPa Trend Height
m
Period
s
Dir
25/11:30pm 20.5 SW 6 8 1015.5 - 0.0 - - - - - - -
25/11:00pm 20.6 SW 6 7 1015.7 - 0.0 - - - - - - -
25/10:30pm 20.6 WSW 6 7 1015.9 - 0.0 - - - - - - -
25/10:00pm 21.1 WSW 5 6 1015.8 - 0.0 - - - - - - -
25/09:30pm 22.0 SSW 3 5 1015.9 - 0.0 - - - - - - -
25/09:00pm 23.0 SE 4 6 1015.9 F 0.0 - - - - - - -
25/08:30pm 22.7 SSE 5 8 1015.7 - 0.0 - - - - - - -
25/08:00pm 22.7 SE 5 7 1015.7 - 0.0 - - - - - - -
25/07:30pm 22.9 SE 5 8 1015.5 - 0.0 - - - - - - -
25/07:00pm 22.8 SE 5 7 1015.4 - 0.0 - - - - - - -
25/06:30pm 22.9 SE 5 7 1015.0 - 0.0 - - - - - - -
25/06:00pm 22.8 SE 4 7 1014.8 S 0.0 - - - - - - -
25/05:30pm 23.4 SE 5 7 1014.6 - 0.0 - - - - - - -
25/05:00pm 24.2 SE 5 8 1014.4 - 0.0 - - - - - - -
25/04:30pm 24.7 ESE 7 11 1014.2 - 0.0 - - - - - - -
25/04:00pm 25.2 SE 7 11 1014.0 - 0.0 - - - - - - -
25/03:30pm 25.5 SE 7 11 1014.0 - 0.0 - - - - - - -
25/03:00pm 25.7 SE 7 11 1014.0 F 0.0 - - - - - - -
25/02:30pm 25.4 SE 8 11 1014.0 - 0.0 - - - - - - -
25/02:00pm 25.6 SE 8 12 1014.3 - 0.0 - - - - - - -
25/01:30pm 25.6 SSE 7 11 1014.8 - 0.0 - - - - - - -
25/01:00pm 26.1 SSE 9 13 1015.2 - 0.0 - - - - - - -
25/12:30pm 25.8 SSE 9 14 1015.6 - 0.0 - - - - - - -
25/12:00pm 25.5 SSE 10 15 1016.1 F 0.0 - - - - - - -
25/11:30am 25.5 SSE 10 15 1016.7 - 0.0 - - - - - - -
25/11:00am 25.4 SSE 10 16 1017.0 - 0.0 - Partly cloudy - - - - -
25/10:30am 24.8 SSE 9 15 1017.3 - 0.0 - Partly cloudy - - - - -
25/10:00am 24.8 SSE 11 16 1017.3 - 0.0 - Partly cloudy - - - - -
25/09:30am 24.4 SSE 9 14 1017.3 - 0.0 - Partly cloudy - - - - -
25/09:00am 24.3 S 10 16 1017.4 F 0.2 - Mostly cloudy - - - - -
25/08:30am 23.4 S 10 15 1017.0 - 0.2 - Partly cloudy - - - - -
25/08:00am 22.1 SSW 7 11 1016.8 - 0.2 - Partly cloudy - - - - -
25/07:30am 20.0 SW 7 8 1016.7 - 0.2 - - - - - - -
25/07:00am 19.4 SW 7 8 1016.5 - 0.2 - - - - - - -
25/06:30am 19.2 SW 7 8 1016.1 - 0.2 - - - - - - -
25/06:00am 19.4 SW 7 8 1015.8 R 0.2 - Mostly clear - - - - -
25/05:30am 19.5 SW 7 9 1015.5 - 0.2 - Partly cloudy - - - - -
25/05:00am 19.4 SW 7 9 1015.4 - 0.2 - Partly cloudy - - - - -
25/04:30am 19.6 SW 7 9 1015.2 - 0.2 - Partly cloudy - - - - -
25/04:00am 19.6 SW 7 8 1015.2 - 0.2 - Partly cloudy - - - - -
25/03:30am 19.7 SW 7 8 1015.3 - 0.2 - - - - - - -
25/03:00am 20.0 SW 7 9 1015.2 - 0.2 - - - - - - -
25/02:30am 20.2 SW 7 8 1015.3 - 0.2 - Partly cloudy - - - - -
25/02:00am 20.6 SW 6 8 1015.7 - 0.2 - Partly cloudy - - - - -
25/01:30am 21.0 SW 6 8 1016.1 - 0.2 - Partly cloudy - - - - -
25/01:00am 21.3 SW 4 6 1016.4 - 0.2 - Partly cloudy - - - - -
25/12:30am 23.4 SSE 8 13 1016.6 - 0.2 - Partly cloudy - - - - -
25/12:00am 23.2 SSE 7 12 1017.0 - 0.2 - Mostly clear - - - - -
 
Date/Time
EST
Temp
°C
Wind Pressure Rain since
9am
mm
Weather Cloud Vis
km
Sea
Height
m
Swell
Dir  Spd
kts
Gust
kts
hPa Trend Height
m
Period
s
Dir
24/11:30pm 23.2 SSE 7 11 1017.2 - 0.2 - Partly cloudy - - - - -
24/11:00pm 23.5 SE 7 11 1017.5 - 0.2 - Partly cloudy - - - - -
24/10:30pm 23.3 SE 6 10 1017.7 - 0.2 - Partly cloudy - - - - -
24/10:00pm 23.5 SE 7 13 1017.9 - 0.2 - Partly cloudy - - - - -
24/09:30pm 23.5 SE 7 10 1018.1 - 0.2 - Partly cloudy - - - - -
24/09:00pm 23.4 SE 7 10 1018.1 F 0.2 - Partly cloudy - - - - -
24/08:30pm 23.6 SE 6 9 1017.9 - 0.2 - - - - - - -
24/08:00pm 23.6 SE 6 9 1017.6 - 0.2 - - - - - - -
24/07:30pm 23.5 SE 6 11 1017.4 - 0.2 - - - - - - -
24/07:00pm 24.0 SE 7 11 1017.2 - 0.2 - - - - - - -
24/06:30pm 23.9 SE 8 13 1016.9 - 0.2 - Partly cloudy - - - - -
24/06:00pm 24.0 SE 8 13 1016.7 R 0.2 - Mostly cloudy - - - - -
24/05:30pm 24.3 SE 7 12 1016.6 - 0.2 - Cloudy - - - - -

Other Formats:

Comma delimited format used in spreadsheet applications
http://www.bom.gov.au/fwo/IDQ60701/IDQ60701.94367.axf

JavaScript Object Notation format (JSON) in row-major order
http://www.bom.gov.au/fwo/IDQ60701/IDQ60701.94367.json